createdAt,value
2016-06-13T00:00:36.621Z,16.4
2016-06-13T00:01:36.610Z,16.34
2016-06-13T00:02:36.566Z,16.35
2016-06-13T00:03:36.552Z,16.4
2016-06-13T00:04:36.540Z,16.4
2016-06-13T00:05:36.356Z,16.4
2016-06-13T00:06:36.500Z,16.4
2016-06-13T00:07:36.487Z,16.41
2016-06-13T00:08:36.458Z,16.42
2016-06-13T00:09:36.431Z,16.44
2016-06-13T00:10:36.965Z,16.34
2016-06-13T00:11:36.234Z,16.4
2016-06-13T00:12:36.362Z,16.44
2016-06-13T00:13:36.350Z,16.35
2016-06-13T00:14:36.336Z,16.41
2016-06-13T00:15:36.480Z,16.41
2016-06-13T00:16:36.280Z,16.48
2016-06-13T00:17:36.284Z,16.35
2016-06-13T00:18:36.256Z,16.38
2016-06-13T00:19:36.226Z,16.37
2016-06-13T00:20:36.215Z,16.38
2016-06-13T00:21:36.046Z,16.42
2016-06-13T00:22:36.174Z,16.44
2016-06-13T00:23:36.146Z,16.42
2016-06-13T00:24:36.134Z,16.42
2016-06-13T00:25:36.152Z,16.42
2016-06-13T00:26:36.092Z,16.42
2016-06-13T00:27:35.923Z,16.41
2016-06-13T00:28:36.051Z,16.38
2016-06-13T00:29:36.040Z,16.45
2016-06-13T00:30:36.010Z,16.53
2016-06-13T00:31:35.982Z,16.42
2016-06-13T00:32:35.970Z,16.45
2016-06-13T00:33:35.958Z,16.55
2016-06-13T00:34:35.930Z,16.38
2016-06-13T00:35:35.901Z,16.42
2016-06-13T00:36:35.889Z,16.48
2016-06-13T00:37:35.876Z,16.48
2016-06-13T00:38:35.848Z,16.4
2016-06-13T00:39:35.835Z,16.49
2016-06-13T00:40:36.355Z,16.56
2016-06-13T00:41:36.841Z,16.42
2016-06-13T00:42:35.766Z,16.41
2016-06-13T00:43:35.754Z,16.49
2016-06-13T00:44:35.570Z,16.41
2016-06-13T00:45:35.556Z,16.42
2016-06-13T00:46:35.685Z,16.41
2016-06-13T00:47:35.672Z,16.41
2016-06-13T00:48:35.644Z,16.44
2016-06-13T00:49:35.632Z,16.41
2016-06-13T00:50:35.604Z,16.42
2016-06-13T00:51:35.591Z,16.41
2016-06-13T00:52:35.563Z,16.45
2016-06-13T00:53:35.566Z,16.42
2016-06-13T00:54:35.523Z,16.41
2016-06-13T00:55:35.509Z,16.45
2016-06-13T00:56:36.373Z,16.4
2016-06-13T00:57:35.469Z,16.41
2016-06-13T00:58:35.457Z,16.4
2016-06-13T00:59:35.428Z,16.35
2016-06-13T01:00:35.416Z,16.41
2016-06-13T01:01:35.388Z,16.44
2016-06-13T01:02:35.375Z,16.41
2016-06-13T01:03:35.347Z,16.41
2016-06-13T01:04:35.318Z,16.41
2016-06-13T01:05:35.307Z,16.37
2016-06-13T01:06:35.293Z,16.44
2016-06-13T01:07:35.265Z,16.37
2016-06-13T01:08:35.238Z,16.38
2016-06-13T01:09:35.224Z,16.4
2016-06-13T01:10:35.383Z,16.34
2016-06-13T01:11:35.183Z,16.3
2016-06-13T01:12:35.172Z,16.31
2016-06-13T01:13:35.190Z,16.27
2016-06-13T01:14:35.067Z,16.31
2016-06-13T01:15:34.993Z,16.26
2016-06-13T01:16:35.090Z,16.3
2016-06-13T01:17:35.140Z,16.37
2016-06-13T01:18:34.955Z,16.33
2016-06-13T01:19:35.021Z,16.25
2016-06-13T01:20:35.008Z,16.25
2016-06-13T01:21:34.980Z,16.3
2016-06-13T01:22:34.968Z,16.3
2016-06-13T01:23:34.940Z,16.3
2016-06-13T01:24:34.926Z,16.33
2016-06-13T01:25:34.976Z,16.34
2016-06-13T01:26:35.245Z,16.3
2016-06-13T01:27:34.858Z,16.26
2016-06-13T01:28:34.846Z,16.3
2016-06-13T01:29:34.833Z,16.23
2016-06-13T01:30:34.789Z,16.14
2016-06-13T01:31:34.776Z,16.26
2016-06-13T01:32:34.764Z,16.31
2016-06-13T01:33:34.736Z,16.31
2016-06-13T01:34:34.724Z,16.25
2016-06-13T01:35:34.710Z,16.31
2016-06-13T01:36:34.682Z,16.23
2016-06-13T01:37:34.655Z,16.2
2016-06-13T01:38:34.486Z,16.11
2016-06-13T01:39:34.630Z,16.22
2016-06-13T01:40:34.444Z,16.11
2016-06-13T01:41:34.589Z,16.2
2016-06-13T01:42:34.560Z,16.18
2016-06-13T01:43:34.532Z,16.16
2016-06-13T01:44:34.520Z,16.18
2016-06-13T01:45:34.492Z,16.15
2016-06-13T01:46:34.479Z,16.01
2016-06-13T01:47:34.450Z,16.09
2016-06-13T01:48:34.438Z,16.04
2016-06-13T01:49:34.410Z,16.12
2016-06-13T01:50:34.382Z,16.14
2016-06-13T01:51:34.369Z,16.12
2016-06-13T01:52:34.356Z,16.03
2016-06-13T01:53:34.328Z,16.11
2016-06-13T01:54:34.316Z,15.99
2016-06-13T01:55:34.303Z,15.99
2016-06-13T01:56:34.353Z,16
2016-06-13T01:57:34.247Z,15.99
2016-06-13T01:58:34.234Z,16
2016-06-13T01:59:34.206Z,15.96
2016-06-13T02:00:34.178Z,16.06
2016-06-13T02:01:34.166Z,16.04
2016-06-13T02:02:34.153Z,16.01
2016-06-13T02:03:34.140Z,16.04
2016-06-13T02:04:34.113Z,16.01
2016-06-13T02:05:34.099Z,16.03
2016-06-13T02:06:34.072Z,15.96
2016-06-13T02:07:33.903Z,15.97
2016-06-13T02:08:34.030Z,16
2016-06-13T02:09:34.003Z,16
2016-06-13T02:10:33.990Z,16.01
2016-06-13T02:11:34.899Z,16
2016-06-13T02:12:33.949Z,15.99
2016-06-13T02:13:33.921Z,16.06
2016-06-13T02:14:33.908Z,16.07
2016-06-13T02:15:33.897Z,15.99
2016-06-13T02:16:33.868Z,15.96
2016-06-13T02:17:33.683Z,15.99
2016-06-13T02:18:33.842Z,16
2016-06-13T02:19:33.815Z,16
2016-06-13T02:20:33.787Z,16.01
2016-06-13T02:21:33.774Z,15.94
2016-06-13T02:22:33.746Z,15.93
2016-06-13T02:23:33.733Z,15.99
2016-06-13T02:24:33.705Z,15.99
2016-06-13T02:25:33.677Z,15.93
2016-06-13T02:26:33.539Z,15.99
2016-06-13T02:27:33.652Z,16.01
2016-06-13T02:28:33.467Z,15.96
2016-06-13T02:29:33.612Z,15.97
2016-06-13T02:30:33.582Z,15.96
2016-06-13T02:31:33.399Z,15.96
2016-06-13T02:32:33.543Z,15.97
2016-06-13T02:33:33.514Z,15.99
2016-06-13T02:34:33.485Z,16.03
2016-06-13T02:35:33.473Z,15.94
2016-06-13T02:36:33.461Z,16.03
2016-06-13T02:37:33.433Z,16.03
2016-06-13T02:38:33.420Z,15.99
2016-06-13T02:39:33.392Z,16.01
2016-06-13T02:40:33.379Z,16.06
2016-06-13T02:41:33.351Z,16.03
2016-06-13T02:42:33.338Z,15.99
2016-06-13T02:43:33.311Z,15.96
2016-06-13T02:44:33.298Z,15.96
2016-06-13T02:45:33.285Z,15.97
2016-06-13T02:46:33.257Z,16
2016-06-13T02:47:33.229Z,15.99
2016-06-13T02:48:33.217Z,16
2016-06-13T02:49:33.187Z,16
2016-06-13T02:50:33.159Z,16.03
2016-06-13T02:51:33.163Z,15.99
2016-06-13T02:52:33.135Z,16.03
2016-06-13T02:53:33.122Z,16.04
2016-06-13T02:54:33.094Z,16.01
2016-06-13T02:55:33.082Z,15.99
2016-06-13T02:56:33.053Z,15.99
2016-06-13T02:57:33.025Z,16
2016-06-13T02:58:33.013Z,15.99
2016-06-13T02:59:33.001Z,15.99
2016-06-13T03:00:32.972Z,16
2016-06-13T03:01:32.943Z,16.01
2016-06-13T03:02:32.931Z,16.01
2016-06-13T03:03:32.903Z,15.94
2016-06-13T03:04:32.891Z,16.11
2016-06-13T03:05:32.878Z,15.97
2016-06-13T03:06:32.850Z,16.14
2016-06-13T03:07:32.821Z,16.09
2016-06-13T03:08:32.810Z,16.07
2016-06-13T03:09:32.796Z,16.03
2016-06-13T03:10:32.768Z,16.09
2016-06-13T03:11:32.756Z,16.11
2016-06-13T03:12:32.728Z,16.11
2016-06-13T03:13:32.714Z,16.16
2016-06-13T03:14:32.687Z,16.14
2016-06-13T03:15:32.659Z,16.16
2016-06-13T03:16:32.645Z,16.06
2016-06-13T03:17:32.618Z,16.16
2016-06-13T03:18:32.621Z,16.09
2016-06-13T03:19:32.577Z,16.12
2016-06-13T03:20:32.565Z,16.07
2016-06-13T03:21:32.553Z,16.18
2016-06-13T03:22:32.524Z,16.14
2016-06-13T03:23:32.511Z,16.12
2016-06-13T03:24:32.498Z,16.22
2016-06-13T03:25:32.471Z,16.2
2016-06-13T03:26:32.301Z,16.12
2016-06-13T03:27:32.451Z,16.16
2016-06-13T03:28:32.480Z,16.14
2016-06-13T03:29:32.491Z,16.25
2016-06-13T03:30:32.504Z,16.22
2016-06-13T03:31:32.532Z,16.2
2016-06-13T03:32:32.530Z,16.26
2016-06-13T03:33:32.531Z,16.27
2016-06-13T03:34:32.533Z,16.27
2016-06-13T03:35:32.519Z,16.27
2016-06-13T03:36:32.506Z,16.27
2016-06-13T03:37:32.502Z,16.26
2016-06-13T03:38:32.322Z,16.34
2016-06-13T03:39:32.472Z,16.27
2016-06-13T03:40:32.449Z,16.31
2016-06-13T03:41:32.958Z,16.27
2016-06-13T03:42:32.417Z,16.26
2016-06-13T03:43:32.391Z,16.37
2016-06-13T03:44:32.396Z,16.35
2016-06-13T03:45:32.369Z,16.37
2016-06-13T03:46:32.343Z,16.37
2016-06-13T03:47:32.333Z,16.41
2016-06-13T03:48:32.305Z,16.42
2016-06-13T03:49:32.308Z,16.41
2016-06-13T03:50:32.281Z,16.44
2016-06-13T03:51:32.254Z,16.35
2016-06-13T03:52:32.227Z,16.38
2016-06-13T03:53:32.213Z,16.44
2016-06-13T03:54:32.045Z,16.41
2016-06-13T03:55:32.172Z,16.41
2016-06-13T03:56:32.160Z,16.41
2016-06-13T03:57:32.273Z,16.41
2016-06-13T03:58:32.104Z,16.42
2016-06-13T03:59:32.091Z,16.45
2016-06-13T04:00:32.079Z,16.37
2016-06-13T04:01:32.050Z,16.41
2016-06-13T04:02:32.022Z,16.41
2016-06-13T04:03:32.011Z,16.4
2016-06-13T04:04:31.997Z,16.42
2016-06-13T04:05:31.970Z,16.38
2016-06-13T04:06:31.956Z,16.44
2016-06-13T04:07:31.929Z,16.4
2016-06-13T04:08:31.916Z,16.37
2016-06-13T04:09:31.903Z,16.38
2016-06-13T04:10:31.875Z,16.38
2016-06-13T04:11:31.863Z,16.42
2016-06-13T04:12:31.756Z,16.4
2016-06-13T04:13:31.806Z,16.4
2016-06-13T04:14:31.794Z,16.41
2016-06-13T04:15:31.765Z,16.38
2016-06-13T04:16:31.754Z,16.44
2016-06-13T04:17:31.724Z,16.41
2016-06-13T04:18:31.712Z,16.41
2016-06-13T04:19:31.685Z,16.44
2016-06-13T04:20:31.672Z,16.38
2016-06-13T04:21:31.643Z,16.38
2016-06-13T04:22:31.614Z,16.41
2016-06-13T04:23:31.602Z,16.44
2016-06-13T04:24:31.590Z,16.45
2016-06-13T04:25:31.562Z,16.45
2016-06-13T04:26:31.564Z,16.55
2016-06-13T04:27:31.521Z,16.42
2016-06-13T04:28:31.508Z,16.42
2016-06-13T04:29:31.480Z,16.52
2016-06-13T04:30:31.468Z,16.45
2016-06-13T04:31:31.440Z,16.41
2016-06-13T04:32:31.427Z,16.41
2016-06-13T04:33:31.414Z,16.42
2016-06-13T04:34:31.386Z,16.49
2016-06-13T04:35:31.358Z,16.48
2016-06-13T04:36:31.346Z,16.44
2016-06-13T04:37:31.317Z,16.44
2016-06-13T04:38:31.305Z,16.44
2016-06-13T04:39:31.292Z,16.42
2016-06-13T04:40:31.264Z,16.41
2016-06-13T04:41:31.252Z,16.45
2016-06-13T04:42:31.692Z,16.56
2016-06-13T04:43:31.211Z,16.55
2016-06-13T04:44:31.183Z,16.53
2016-06-13T04:45:31.170Z,16.5
2016-06-13T04:46:31.142Z,16.59
2016-06-13T04:47:31.130Z,16.62
2016-06-13T04:48:31.101Z,16.6
2016-06-13T04:49:31.088Z,16.56
2016-06-13T04:50:31.060Z,16.58
2016-06-13T04:51:31.048Z,16.56
2016-06-13T04:52:31.020Z,16.65
2016-06-13T04:53:31.007Z,16.73
2016-06-13T04:54:30.979Z,16.75
2016-06-13T04:55:30.966Z,16.71
2016-06-13T04:56:30.938Z,16.74
2016-06-13T04:57:30.770Z,16.78
2016-06-13T04:58:30.898Z,16.81
2016-06-13T04:59:30.885Z,16.85
2016-06-13T05:00:30.856Z,16.78
2016-06-13T05:01:30.845Z,16.77
2016-06-13T05:02:30.832Z,16.8
2016-06-13T05:03:30.820Z,16.89
2016-06-13T05:04:30.776Z,16.93
2016-06-13T05:05:30.606Z,16.92
2016-06-13T05:06:30.750Z,16.92
2016-06-13T05:07:30.722Z,16.9
2016-06-13T05:08:30.694Z,16.88
2016-06-13T05:09:30.697Z,16.96
2016-06-13T05:10:30.653Z,16.9
2016-06-13T05:11:30.656Z,16.99
2016-06-13T05:12:30.628Z,16.98
2016-06-13T05:13:30.615Z,16.93
2016-06-13T05:14:30.588Z,16.98
2016-06-13T05:15:30.575Z,17
2016-06-13T05:16:30.546Z,17
2016-06-13T05:17:30.519Z,17.03
2016-06-13T05:18:30.506Z,17.06
2016-06-13T05:19:30.478Z,17.08
2016-06-13T05:20:30.465Z,17.03
2016-06-13T05:21:30.453Z,17.06
2016-06-13T05:22:30.424Z,17.08
2016-06-13T05:23:30.396Z,16.95
2016-06-13T05:24:30.384Z,16.99
2016-06-13T05:25:30.371Z,16.93
2016-06-13T05:26:30.359Z,16.92
2016-06-13T05:27:31.237Z,16.98
2016-06-13T05:28:30.302Z,16.9
2016-06-13T05:29:30.274Z,16.92
2016-06-13T05:30:30.278Z,16.88
2016-06-13T05:31:30.265Z,16.9
2016-06-13T05:32:30.221Z,16.9
2016-06-13T05:33:30.224Z,16.89
2016-06-13T05:34:30.180Z,16.99
2016-06-13T05:35:30.183Z,17
2016-06-13T05:36:30.155Z,17
2016-06-13T05:37:30.127Z,16.98
2016-06-13T05:38:29.942Z,17.03
2016-06-13T05:39:30.117Z,16.96
2016-06-13T05:40:30.073Z,17
2016-06-13T05:41:30.045Z,17.11
2016-06-13T05:42:30.033Z,17.1
2016-06-13T05:43:30.021Z,17.03
2016-06-13T05:44:29.992Z,17.08
2016-06-13T05:45:29.964Z,17.13
2016-06-13T05:46:29.952Z,17.08
2016-06-13T05:47:29.923Z,17.1
2016-06-13T05:48:29.911Z,17.11
2016-06-13T05:49:29.898Z,17.11
2016-06-13T05:50:29.870Z,17.11
2016-06-13T05:51:29.842Z,17.2
2016-06-13T05:52:29.829Z,17.13
2016-06-13T05:53:29.816Z,17.1
2016-06-13T05:54:29.789Z,17.18
2016-06-13T05:55:29.776Z,17.2
2016-06-13T05:56:29.763Z,17.22
2016-06-13T05:57:29.767Z,17.29
2016-06-13T05:58:29.723Z,17.29
2016-06-13T05:59:29.695Z,17.28
2016-06-13T06:00:29.682Z,17.3
2016-06-13T06:01:29.653Z,17.3
2016-06-13T06:02:29.626Z,17.29
2016-06-13T06:03:29.613Z,17.32
2016-06-13T06:04:29.600Z,17.44
2016-06-13T06:05:29.572Z,17.5
2016-06-13T06:06:29.560Z,17.5
2016-06-13T06:07:29.531Z,17.51
2016-06-13T06:08:29.519Z,17.54
2016-06-13T06:09:29.490Z,17.57
2016-06-13T06:10:29.479Z,17.59
2016-06-13T06:11:29.310Z,17.59
2016-06-13T06:12:29.906Z,17.66
2016-06-13T06:13:29.441Z,17.7
2016-06-13T06:14:29.397Z,17.81
2016-06-13T06:15:29.384Z,17.79
2016-06-13T06:16:29.372Z,17.74
2016-06-13T06:17:29.187Z,17.85
2016-06-13T06:18:29.331Z,17.84
2016-06-13T06:19:29.318Z,17.91
2016-06-13T06:20:29.290Z,17.92
2016-06-13T06:21:29.293Z,18.02
2016-06-13T06:22:29.249Z,18.03
2016-06-13T06:23:29.253Z,18.1
2016-06-13T06:24:29.209Z,18.15
2016-06-13T06:25:29.196Z,18.22
2016-06-13T06:26:29.200Z,18.24
2016-06-13T06:27:29.640Z,18.17
2016-06-13T06:28:29.143Z,18.17
2016-06-13T06:29:29.115Z,18.24
2016-06-13T06:30:29.102Z,18.22
2016-06-13T06:31:29.090Z,18.22
2016-06-13T06:32:29.061Z,18.22
2016-06-13T06:33:29.033Z,18.25
2016-06-13T06:34:29.021Z,18.28
2016-06-13T06:35:29.009Z,18.18
2016-06-13T06:36:28.996Z,18.27
2016-06-13T06:37:28.967Z,18.29
2016-06-13T06:38:28.939Z,18.33
2016-06-13T06:39:28.927Z,18.31
2016-06-13T06:40:28.914Z,18.43
2016-06-13T06:41:28.761Z,18.39
2016-06-13T06:42:28.874Z,18.47
2016-06-13T06:43:28.877Z,18.5
2016-06-13T06:44:28.848Z,18.44
2016-06-13T06:45:28.820Z,18.54
2016-06-13T06:46:28.792Z,18.55
2016-06-13T06:47:28.780Z,18.52
2016-06-13T06:48:28.782Z,18.5
2016-06-13T06:49:28.739Z,18.52
2016-06-13T06:50:28.741Z,18.52
2016-06-13T06:51:28.714Z,18.62
2016-06-13T06:52:28.686Z,18.55
2016-06-13T06:53:28.673Z,18.65
2016-06-13T06:54:28.645Z,18.73
2016-06-13T06:55:28.631Z,18.74
2016-06-13T06:56:28.604Z,18.84
2016-06-13T06:57:29.279Z,18.8
2016-06-13T06:58:28.579Z,18.91
2016-06-13T06:59:28.551Z,19.01
2016-06-13T07:00:28.538Z,18.95
2016-06-13T07:01:28.526Z,19.02
2016-06-13T07:02:28.497Z,19.1
2016-06-13T07:03:28.484Z,19.01
2016-06-13T07:04:28.457Z,19.08
2016-06-13T07:05:28.460Z,19.01
2016-06-13T07:06:28.432Z,19.13
2016-06-13T07:07:28.419Z,19.13
2016-06-13T07:08:28.391Z,19.17
2016-06-13T07:09:28.394Z,19.23
2016-06-13T07:10:28.366Z,19.25
2016-06-13T07:11:28.353Z,19.28
2016-06-13T07:12:28.512Z,19.35
2016-06-13T07:13:28.312Z,19.42
2016-06-13T07:14:28.285Z,19.43
2016-06-13T07:15:28.271Z,19.53
2016-06-13T07:16:28.260Z,19.54
2016-06-13T07:17:28.247Z,19.55
2016-06-13T07:18:28.219Z,19.54
2016-06-13T07:19:28.191Z,19.55
2016-06-13T07:20:28.193Z,19.47
2016-06-13T07:21:28.009Z,19.47
2016-06-13T07:22:28.137Z,19.57
2016-06-13T07:23:28.125Z,19.48
2016-06-13T07:24:28.112Z,19.46
2016-06-13T07:25:28.085Z,19.5
2016-06-13T07:26:28.071Z,19.51
2016-06-13T07:27:27.902Z,19.35
2016-06-13T07:28:28.359Z,19.36
2016-06-13T07:29:28.019Z,19.23
2016-06-13T07:30:28.036Z,19.23
2016-06-13T07:31:27.977Z,19.14
2016-06-13T07:32:27.980Z,19.11
2016-06-13T07:33:27.952Z,18.91
2016-06-13T07:34:27.939Z,18.91
2016-06-13T07:35:27.912Z,18.97
2016-06-13T07:36:27.899Z,18.91
2016-06-13T07:37:27.871Z,18.91
2016-06-13T07:38:27.874Z,18.8
2016-06-13T07:39:27.861Z,18.84
2016-06-13T07:40:27.817Z,18.8
2016-06-13T07:41:27.806Z,18.72
2016-06-13T07:42:27.808Z,18.77
2016-06-13T07:43:27.608Z,18.62
2016-06-13T07:44:27.752Z,18.73
2016-06-13T07:45:27.738Z,18.64
2016-06-13T07:46:27.726Z,18.65
2016-06-13T07:47:27.714Z,18.65
2016-06-13T07:48:27.514Z,18.67
2016-06-13T07:49:27.658Z,18.62
2016-06-13T07:50:27.629Z,18.61
2016-06-13T07:51:27.632Z,18.67
2016-06-13T07:52:27.604Z,18.68
2016-06-13T07:53:27.436Z,18.62
2016-06-13T07:54:27.579Z,18.7
2016-06-13T07:55:27.238Z,18.52
2016-06-13T07:56:27.539Z,18.57
2016-06-13T07:57:28.620Z,18.46
2016-06-13T07:58:27.497Z,18.39
2016-06-13T07:59:27.470Z,18.4
2016-06-13T08:00:27.457Z,18.36
2016-06-13T08:01:27.429Z,18.33
2016-06-13T08:02:27.416Z,18.37
2016-06-13T08:03:27.388Z,18.36
2016-06-13T08:04:27.391Z,18.37
2016-06-13T08:05:27.363Z,18.33
2016-06-13T08:06:27.335Z,18.33
2016-06-13T08:07:27.322Z,18.27
2016-06-13T08:08:27.325Z,18.25
2016-06-13T08:09:27.282Z,18.29
2016-06-13T08:10:27.269Z,18.34
2016-06-13T08:11:27.240Z,18.25
2016-06-13T08:12:27.244Z,18.24
2016-06-13T08:13:27.294Z,18.25
2016-06-13T08:14:27.187Z,18.34
2016-06-13T08:15:27.175Z,18.22
2016-06-13T08:16:27.146Z,18.34
2016-06-13T08:17:27.134Z,18.33
2016-06-13T08:18:27.137Z,18.28
2016-06-13T08:19:27.093Z,18.33
2016-06-13T08:20:27.081Z,18.33
2016-06-13T08:21:27.054Z,18.36
2016-06-13T08:22:27.040Z,18.39
2016-06-13T08:23:27.028Z,18.42
2016-06-13T08:24:26.999Z,18.46
2016-06-13T08:25:26.971Z,18.4
2016-06-13T08:26:26.975Z,18.42
2016-06-13T08:27:26.806Z,18.39
2016-06-13T08:28:27.214Z,18.52
2016-06-13T08:29:26.906Z,18.49
2016-06-13T08:30:26.893Z,18.58
2016-06-13T08:31:26.865Z,18.68
2016-06-13T08:32:26.852Z,18.64
2016-06-13T08:33:26.683Z,18.67
2016-06-13T08:34:26.827Z,18.68
2016-06-13T08:35:26.799Z,18.8
2016-06-13T08:36:26.771Z,18.83
2016-06-13T08:37:26.759Z,19.02
2016-06-13T08:38:26.746Z,18.94
2016-06-13T08:39:26.717Z,19.1
2016-06-13T08:40:26.690Z,19.08
2016-06-13T08:41:26.677Z,19.1
2016-06-13T08:42:27.601Z,18.99
2016-06-13T08:43:26.792Z,19.15
2016-06-13T08:44:26.624Z,19.13
2016-06-13T08:45:26.611Z,19.1
2016-06-13T08:46:26.583Z,19.06
2016-06-13T08:47:26.429Z,19.08
2016-06-13T08:48:26.573Z,19.08
2016-06-13T08:49:26.546Z,18.97
2016-06-13T08:50:26.517Z,18.95
2016-06-13T08:51:26.504Z,19.08
2016-06-13T08:52:26.477Z,19.11
2016-06-13T08:53:26.480Z,19.15
2016-06-13T08:54:26.466Z,19.33
2016-06-13T08:55:26.267Z,19.32
2016-06-13T08:56:26.411Z,19.36
2016-06-13T08:57:26.398Z,19.38
2016-06-13T08:58:26.229Z,19.51
2016-06-13T08:59:26.373Z,19.55
2016-06-13T09:00:26.188Z,19.6
2016-06-13T09:01:26.333Z,19.72
2016-06-13T09:02:26.304Z,19.9
2016-06-13T09:03:26.291Z,20.13
2016-06-13T09:04:26.278Z,20.35
2016-06-13T09:05:26.110Z,20.41
2016-06-13T09:06:26.081Z,20.51
2016-06-13T09:07:26.226Z,20.54
2016-06-13T09:08:26.213Z,20.49
2016-06-13T09:09:26.169Z,20.59
2016-06-13T09:10:26.172Z,20.58
2016-06-13T09:11:26.143Z,20.58
2016-06-13T09:12:26.131Z,20.68
2016-06-13T09:13:26.119Z,20.54
2016-06-13T09:14:26.106Z,20.58
2016-06-13T09:15:26.078Z,20.59
2016-06-13T09:16:26.066Z,20.64
2016-06-13T09:17:26.053Z,20.74
2016-06-13T09:18:26.024Z,20.76
2016-06-13T09:19:26.013Z,20.83
2016-06-13T09:20:26.000Z,20.86
2016-06-13T09:21:25.987Z,21.04
2016-06-13T09:22:25.975Z,21.02
2016-06-13T09:23:25.947Z,21.04
2016-06-13T09:24:25.933Z,21.13
2016-06-13T09:25:25.921Z,21.21
2016-06-13T09:26:25.893Z,21.17
2016-06-13T09:27:25.881Z,21.24
2016-06-13T09:28:26.055Z,21.29
2016-06-13T09:29:25.856Z,21.19
2016-06-13T09:30:25.843Z,21.29
2016-06-13T09:31:25.814Z,21.24
2016-06-13T09:32:25.803Z,21.26
2016-06-13T09:33:25.790Z,21.21
2016-06-13T09:34:25.762Z,21.14
2016-06-13T09:35:25.749Z,21.01
2016-06-13T09:36:25.736Z,20.96
2016-06-13T09:37:25.724Z,20.95
2016-06-13T09:38:25.696Z,20.99
2016-06-13T09:39:25.699Z,21.19
2016-06-13T09:40:25.671Z,20.84
2016-06-13T09:41:25.658Z,20.76
2016-06-13T09:42:25.661Z,20.81
2016-06-13T09:43:25.806Z,20.8
2016-06-13T09:44:25.605Z,20.62
2016-06-13T09:45:25.592Z,20.83
2016-06-13T09:46:25.564Z,20.93
2016-06-13T09:47:25.552Z,21.04
2016-06-13T09:48:25.555Z,20.91
2016-06-13T09:49:25.526Z,20.96
2016-06-13T09:50:25.498Z,21.24
2016-06-13T09:51:25.501Z,21.34
2016-06-13T09:52:25.489Z,21.01
2016-06-13T09:53:25.461Z,20.9
2016-06-13T09:54:25.448Z,20.98
2016-06-13T09:55:25.436Z,20.79
2016-06-13T09:56:25.423Z,20.74
2016-06-13T09:57:25.394Z,20.77
2016-06-13T09:58:25.430Z,20.95
2016-06-13T09:59:25.369Z,20.77
2016-06-13T10:00:25.357Z,20.8
2016-06-13T10:01:25.344Z,20.64
2016-06-13T10:02:25.317Z,20.71
2016-06-13T10:03:25.320Z,20.79
2016-06-13T10:04:25.150Z,20.89
2016-06-13T10:05:25.294Z,21.16
2016-06-13T10:06:25.266Z,21.32
2016-06-13T10:07:25.254Z,21.54
2016-06-13T10:08:25.241Z,21.59
2016-06-13T10:09:25.229Z,21.69
2016-06-13T10:10:25.216Z,21.78
2016-06-13T10:11:25.187Z,21.78
2016-06-13T10:12:25.176Z,21.83
2016-06-13T10:13:24.851Z,21.74
2016-06-13T10:14:25.134Z,21.78
2016-06-13T10:15:25.121Z,21.66
2016-06-13T10:16:25.094Z,21.57
2016-06-13T10:17:25.097Z,21.57
2016-06-13T10:18:25.069Z,21.61
2016-06-13T10:19:25.071Z,21.46
2016-06-13T10:20:25.044Z,21.59
2016-06-13T10:21:25.031Z,21.74
2016-06-13T10:22:25.018Z,21.78
2016-06-13T10:23:24.990Z,21.72
2016-06-13T10:24:24.994Z,21.83
2016-06-13T10:25:24.980Z,22.02
2016-06-13T10:26:25.905Z,22.04
2016-06-13T10:27:24.924Z,22.19
2016-06-13T10:28:25.272Z,22.12
2016-06-13T10:29:24.759Z,22.2
2016-06-13T10:30:24.886Z,22.37
2016-06-13T10:31:24.874Z,22.34
2016-06-13T10:32:24.862Z,22.25
2016-06-13T10:33:24.849Z,22.57
2016-06-13T10:34:24.821Z,22.6
2016-06-13T10:35:24.809Z,22.67
2016-06-13T10:36:24.796Z,22.57
2016-06-13T10:37:24.783Z,22.83
2016-06-13T10:38:24.786Z,23.05
2016-06-13T10:39:24.602Z,22.97
2016-06-13T10:40:24.745Z,23.11
2016-06-13T10:41:24.718Z,23.31
2016-06-13T10:42:24.705Z,23.22
2016-06-13T10:43:25.911Z,23.38
2016-06-13T10:44:24.695Z,23.67
2016-06-13T10:45:24.683Z,23.79
2016-06-13T10:46:24.655Z,23.87
2016-06-13T10:47:24.627Z,23.87
2016-06-13T10:48:24.630Z,24.01
2016-06-13T10:49:24.617Z,23.92
2016-06-13T10:50:24.604Z,24.01
2016-06-13T10:51:24.576Z,24.14
2016-06-13T10:52:24.563Z,24.17
2016-06-13T10:53:24.551Z,24.17
2016-06-13T10:54:24.538Z,24.32
2016-06-13T10:55:24.527Z,24.68
2016-06-13T10:56:24.514Z,24.94
2016-06-13T10:57:24.501Z,24.85
2016-06-13T10:58:24.614Z,24.87
2016-06-13T10:59:24.476Z,24.8
2016-06-13T11:00:24.448Z,24.71
2016-06-13T11:01:24.435Z,24.59
2016-06-13T11:02:24.423Z,24.52
2016-06-13T11:03:24.426Z,24.5
2016-06-13T11:04:24.397Z,24.45
2016-06-13T11:05:24.400Z,24.49
2016-06-13T11:06:24.373Z,24.42
2016-06-13T11:07:24.360Z,24.32
2016-06-13T11:08:24.348Z,24.12
2016-06-13T11:09:24.366Z,24.08
2016-06-13T11:10:24.307Z,24.1
2016-06-13T11:11:24.310Z,24.05
2016-06-13T11:12:24.297Z,24.14
2016-06-13T11:13:24.675Z,24.19
2016-06-13T11:14:24.272Z,24.16
2016-06-13T11:15:24.259Z,24.26
2016-06-13T11:16:24.247Z,24.29
2016-06-13T11:17:24.250Z,24.19
2016-06-13T11:18:24.206Z,24.14
2016-06-13T11:19:24.193Z,24.07
2016-06-13T11:20:24.182Z,24.12
2016-06-13T11:21:24.169Z,24.41
2016-06-13T11:22:24.156Z,24.53
2016-06-13T11:23:24.143Z,24.45
2016-06-13T11:24:24.131Z,24.5
2016-06-13T11:25:24.119Z,24.44
2016-06-13T11:26:24.106Z,24.5
2016-06-13T11:27:24.078Z,24.9
2016-06-13T11:28:24.971Z,24.76
2016-06-13T11:29:24.052Z,24.73
2016-06-13T11:30:30.118Z,24.64
2016-06-13T11:31:24.027Z,24.31
2016-06-13T11:32:24.015Z,24.17
2016-06-13T11:33:24.018Z,24.13
2016-06-13T11:34:23.975Z,24.34
2016-06-13T11:35:23.978Z,24.6
2016-06-13T11:36:23.965Z,24.94
2016-06-13T11:37:23.952Z,24.85
2016-06-13T11:38:23.940Z,24.53
2016-06-13T11:39:23.927Z,24.8
2016-06-13T11:40:23.915Z,24.91
2016-06-13T11:41:23.886Z,24.91
2016-06-13T11:42:23.874Z,24.97
2016-06-13T11:43:23.861Z,24.98
2016-06-13T11:44:23.849Z,24.67
2016-06-13T11:45:23.852Z,24.44
2016-06-13T11:46:23.823Z,24.14
2016-06-13T11:47:23.826Z,23.89
2016-06-13T11:48:23.798Z,23.95
2016-06-13T11:49:23.801Z,23.64
2016-06-13T11:50:23.773Z,23.61
2016-06-13T11:51:23.761Z,23.86
2016-06-13T11:52:23.748Z,23.7
2016-06-13T11:53:23.751Z,23.87
2016-06-13T11:54:23.723Z,23.72
2016-06-13T11:55:23.711Z,23.8
2016-06-13T11:56:23.526Z,23.55
2016-06-13T11:57:23.686Z,23.6
2016-06-13T11:58:24.313Z,23.8
2016-06-13T11:59:24.035Z,23.7
2016-06-13T12:00:23.632Z,23.67
2016-06-13T12:01:23.620Z,23.62
2016-06-13T12:02:23.608Z,23.39
2016-06-13T12:03:23.594Z,22.94
2016-06-13T12:04:23.582Z,22.72
2016-06-13T12:05:23.569Z,22.38
2016-06-13T12:06:23.540Z,22.35
2016-06-13T12:07:23.560Z,22.52
2016-06-13T12:08:23.532Z,22.34
2016-06-13T12:09:23.504Z,22.27
2016-06-13T12:10:23.507Z,22.1
2016-06-13T12:11:23.463Z,22.01
2016-06-13T12:12:23.450Z,21.79
2016-06-13T12:13:23.312Z,21.78
2016-06-13T12:14:23.628Z,21.72
2016-06-13T12:15:23.413Z,21.74
2016-06-13T12:16:23.400Z,21.6
2016-06-13T12:17:23.371Z,21.57
2016-06-13T12:18:23.360Z,21.57
2016-06-13T12:19:23.347Z,21.69
2016-06-13T12:20:23.225Z,21.81
2016-06-13T12:21:23.322Z,21.72
2016-06-13T12:22:23.309Z,21.6
2016-06-13T12:23:23.297Z,21.74
2016-06-13T12:24:23.284Z,21.6
2016-06-13T12:25:23.257Z,21.71
2016-06-13T12:26:23.243Z,21.76
2016-06-13T12:27:23.215Z,21.74
2016-06-13T12:28:23.953Z,21.57
2016-06-13T12:29:23.206Z,21.57
2016-06-13T12:30:23.178Z,21.61
2016-06-13T12:31:23.164Z,21.82
2016-06-13T12:32:23.168Z,21.74
2016-06-13T12:33:23.155Z,21.82
2016-06-13T12:34:23.184Z,21.85
2016-06-13T12:35:23.212Z,21.74
2016-06-13T12:36:23.240Z,21.57
2016-06-13T12:37:23.252Z,21.59
2016-06-13T12:38:23.260Z,21.41
2016-06-13T12:39:23.278Z,21.38
2016-06-13T12:40:23.264Z,21.17
2016-06-13T12:41:23.267Z,21.21
2016-06-13T12:42:23.254Z,21.17
2016-06-13T12:43:23.920Z,21.24
2016-06-13T12:44:24.647Z,21.2
2016-06-13T12:45:23.248Z,21.21
2016-06-13T12:46:23.241Z,21.2
2016-06-13T12:47:23.202Z,21.24
2016-06-13T12:48:23.192Z,21.38
2016-06-13T12:49:23.197Z,21.36
2016-06-13T12:50:23.171Z,21.57
2016-06-13T12:51:23.160Z,21.5
2016-06-13T12:52:23.150Z,21.51
2016-06-13T12:53:23.138Z,21.69
2016-06-13T12:54:23.111Z,21.71
2016-06-13T12:55:23.099Z,21.83
2016-06-13T12:56:23.087Z,21.66
2016-06-13T12:57:22.919Z,21.88